Townline, New York
Current Conditions -  °F | °C
As of 5:54 PM on Tuesday 21 Oct 2014 (Local Time) from KBUF Reporting Station
Drizzle Drizzle  
Wind Chill: 42°   Ceiling: 500
Heat Index: 48°   Visibility: 10mi
Dew Point: 45°   Wind: 16mph
Humidity: 89%   Direction: 40°NE
Pressure: 29.96"   Gusts: 22mph
Location:  42.8931°N, 78.5076°W
Report Text: KBUF 212154Z 04014G19KT 10SM -DZ OVC005 09/07 A2996 RMK AO2 SLP148 P0000 T00890072
Loading
Personal Weather Stations






























Interactive Weather Map
Tropical Storm Tracking
New forecast layout! Learn more

10-Day Weather Forecast

Advertisements
Track Severe Weather on mobile